Air Navigation Services of Czech Republic
Airport: LKPR Updated:  19.01.2018 14:38:07  UTC
 METAR LKPR 19.01. 14:30 ...
METAR LKPR 191430Z 24013KT 9999 -SHRASN BKN019 03/M00 Q1007 R24/29//95 R30/29//95 TEMPO BKN015 RMK REG QNH 1003=
 TAF LKPR 19.01. 11:00 ...
TAF LKPR 191100Z 1912/2018 24010KT 9999 SCT035      TEMPO 1912/2000 8000 -SHSN BKN010      PROB30 TEMPO 1912/1918 27014G24KT 3000 SHSN SCT013TCU      BECMG 2003/2006 5000 -SN SCT010 BKN013      TEMPO 2006/2012 24012G22KT 2500 SN BR BKN010      BECMG 2012/2015 16007KT 9999 SCT033=